sensor_id;sensor_type;location;lat;lon;timestamp;P1;durP1;ratioP1;P2;durP2;ratioP2
75406;SDS011;63978;55.814;37.340;2022-10-16T00:01:33;10.35;;;5.65;;
75406;SDS011;63978;55.814;37.340;2022-10-16T00:03:59;10.90;;;5.07;;
75406;SDS011;63978;55.814;37.340;2022-10-16T00:06:26;12.88;;;5.80;;
75406;SDS011;63978;55.814;37.340;2022-10-16T00:08:52;11.90;;;5.90;;
75406;SDS011;63978;55.814;37.340;2022-10-16T00:13:46;13.45;;;5.47;;
75406;SDS011;63978;55.814;37.340;2022-10-16T00:16:13;13.75;;;5.80;;
75406;SDS011;63978;55.814;37.340;2022-10-16T00:18:39;11.27;;;5.50;;
75406;SDS011;63978;55.814;37.340;2022-10-16T00:21:10;11.75;;;5.47;;
75406;SDS011;63978;55.814;37.340;2022-10-16T00:23:38;11.83;;;5.63;;
75406;SDS011;63978;55.814;37.340;2022-10-16T00:26:08;12.60;;;5.63;;
75406;SDS011;63978;55.814;37.340;2022-10-16T00:28:35;10.73;;;5.45;;
75406;SDS011;63978;55.814;37.340;2022-10-16T00:31:05;10.73;;;5.30;;
75406;SDS011;63978;55.814;37.340;2022-10-16T00:33:35;11.95;;;5.35;;
75406;SDS011;63978;55.814;37.340;2022-10-16T00:36:03;11.10;;;5.35;;
75406;SDS011;63978;55.814;37.340;2022-10-16T00:38:29;10.13;;;5.07;;
75406;SDS011;63978;55.814;37.340;2022-10-16T00:40:55;10.43;;;5.07;;
75406;SDS011;63978;55.814;37.340;2022-10-16T00:46:26;9.70;;;4.80;;
75406;SDS011;63978;55.814;37.340;2022-10-16T00:48:58;10.13;;;5.03;;
75406;SDS011;63978;55.814;37.340;2022-10-16T00:51:31;10.73;;;5.10;;
75406;SDS011;63978;55.814;37.340;2022-10-16T00:54:10;10.20;;;5.25;;
75406;SDS011;63978;55.814;37.340;2022-10-16T00:56:39;10.60;;;5.18;;
75406;SDS011;63978;55.814;37.340;2022-10-16T00:59:06;9.87;;;5.20;;
75406;SDS011;63978;55.814;37.340;2022-10-16T01:01:39;10.57;;;5.40;;
75406;SDS011;63978;55.814;37.340;2022-10-16T01:04:04;10.10;;;5.40;;
75406;SDS011;63978;55.814;37.340;2022-10-16T01:07:13;9.68;;;5.00;;
75406;SDS011;63978;55.814;37.340;2022-10-16T01:15:01;11.68;;;5.13;;
75406;SDS011;63978;55.814;37.340;2022-10-16T01:17:54;11.02;;;5.75;;
75406;SDS011;63978;55.814;37.340;2022-10-16T01:20:44;11.00;;;5.20;;
75406;SDS011;63978;55.814;37.340;2022-10-16T01:26:03;12.00;;;5.30;;
75406;SDS011;63978;55.814;37.340;2022-10-16T01:31:29;10.25;;;5.28;;
75406;SDS011;63978;55.814;37.340;2022-10-16T01:34:02;12.18;;;5.22;;
75406;SDS011;63978;55.814;37.340;2022-10-16T01:36:47;10.48;;;5.22;;
75406;SDS011;63978;55.814;37.340;2022-10-16T01:39:25;9.93;;;4.80;;
75406;SDS011;63978;55.814;37.340;2022-10-16T01:41:59;9.40;;;5.00;;
75406;SDS011;63978;55.814;37.340;2022-10-16T01:44:29;9.80;;;5.07;;
75406;SDS011;63978;55.814;37.340;2022-10-16T01:46:58;9.20;;;4.90;;
75406;SDS011;63978;55.814;37.340;2022-10-16T01:49:26;9.93;;;4.70;;
75406;SDS011;63978;55.814;37.340;2022-10-16T01:51:56;10.37;;;5.00;;
75406;SDS011;63978;55.814;37.340;2022-10-16T01:54:25;11.98;;;5.50;;
75406;SDS011;63978;55.814;37.340;2022-10-16T01:56:53;9.27;;;4.55;;
75406;SDS011;63978;55.814;37.340;2022-10-16T01:59:21;9.68;;;4.90;;
75406;SDS011;63978;55.814;37.340;2022-10-16T02:01:52;8.80;;;4.50;;
75406;SDS011;63978;55.814;37.340;2022-10-16T02:04:29;10.43;;;5.10;;
75406;SDS011;63978;55.814;37.340;2022-10-16T02:06:58;8.35;;;4.43;;
75406;SDS011;63978;55.814;37.340;2022-10-16T02:09:24;9.50;;;5.00;;
75406;SDS011;63978;55.814;37.340;2022-10-16T02:11:51;8.65;;;4.63;;
75406;SDS011;63978;55.814;37.340;2022-10-16T02:14:19;9.35;;;4.63;;
75406;SDS011;63978;55.814;37.340;2022-10-16T02:16:49;8.57;;;4.80;;
75406;SDS011;63978;55.814;37.340;2022-10-16T02:19:15;8.60;;;4.53;;
75406;SDS011;63978;55.814;37.340;2022-10-16T02:27:11;9.32;;;4.80;;
75406;SDS011;63978;55.814;37.340;2022-10-16T02:29:47;8.43;;;4.57;;
75406;SDS011;63978;55.814;37.340;2022-10-16T02:32:19;9.40;;;4.68;;
75406;SDS011;63978;55.814;37.340;2022-10-16T02:34:48;8.13;;;4.23;;
75406;SDS011;63978;55.814;37.340;2022-10-16T02:37:15;9.73;;;4.50;;
75406;SDS011;63978;55.814;37.340;2022-10-16T02:39:42;8.88;;;4.45;;
75406;SDS011;63978;55.814;37.340;2022-10-16T02:42:14;9.80;;;4.88;;
75406;SDS011;63978;55.814;37.340;2022-10-16T02:44:42;9.13;;;4.32;;
75406;SDS011;63978;55.814;37.340;2022-10-16T02:47:07;8.80;;;4.27;;
75406;SDS011;63978;55.814;37.340;2022-10-16T02:49:33;8.63;;;3.87;;
75406;SDS011;63978;55.814;37.340;2022-10-16T02:51:58;8.73;;;4.20;;
75406;SDS011;63978;55.814;37.340;2022-10-16T02:54:24;9.10;;;3.97;;
75406;SDS011;63978;55.814;37.340;2022-10-16T02:56:49;8.03;;;4.27;;
75406;SDS011;63978;55.814;37.340;2022-10-16T02:59:15;8.57;;;3.90;;
75406;SDS011;63978;55.814;37.340;2022-10-16T03:01:40;7.80;;;3.97;;
75406;SDS011;63978;55.814;37.340;2022-10-16T03:04:06;7.93;;;3.87;;
75406;SDS011;63978;55.814;37.340;2022-10-16T03:06:31;8.80;;;3.90;;
75406;SDS011;63978;55.814;37.340;2022-10-16T03:08:57;8.27;;;3.90;;
75406;SDS011;63978;55.814;37.340;2022-10-16T03:11:22;7.85;;;3.90;;
75406;SDS011;63978;55.814;37.340;2022-10-16T03:13:48;8.30;;;4.23;;
75406;SDS011;63978;55.814;37.340;2022-10-16T03:16:13;9.47;;;4.33;;
75406;SDS011;63978;55.814;37.340;2022-10-16T03:18:39;8.50;;;4.30;;
75406;SDS011;63978;55.814;37.340;2022-10-16T03:21:04;9.80;;;4.20;;
75406;SDS011;63978;55.814;37.340;2022-10-16T03:23:30;7.97;;;4.10;;
75406;SDS011;63978;55.814;37.340;2022-10-16T03:25:55;8.95;;;4.20;;
75406;SDS011;63978;55.814;37.340;2022-10-16T03:28:21;7.43;;;3.77;;
75406;SDS011;63978;55.814;37.340;2022-10-16T03:30:46;9.70;;;4.20;;
75406;SDS011;63978;55.814;37.340;2022-10-16T03:33:12;9.10;;;4.10;;
75406;SDS011;63978;55.814;37.340;2022-10-16T03:35:37;7.82;;;4.05;;
75406;SDS011;63978;55.814;37.340;2022-10-16T03:38:03;7.17;;;3.70;;
75406;SDS011;63978;55.814;37.340;2022-10-16T03:40:28;8.60;;;4.27;;
75406;SDS011;63978;55.814;37.340;2022-10-16T03:42:57;7.90;;;3.88;;
75406;SDS011;63978;55.814;37.340;2022-10-16T03:45:23;8.75;;;4.10;;
75406;SDS011;63978;55.814;37.340;2022-10-16T03:47:48;8.30;;;3.80;;
75406;SDS011;63978;55.814;37.340;2022-10-16T03:50:14;9.60;;;4.40;;
75406;SDS011;63978;55.814;37.340;2022-10-16T03:52:40;8.13;;;3.97;;
75406;SDS011;63978;55.814;37.340;2022-10-16T03:55:06;7.77;;;4.07;;
75406;SDS011;63978;55.814;37.340;2022-10-16T03:57:32;9.57;;;4.10;;
75406;SDS011;63978;55.814;37.340;2022-10-16T03:59:58;10.37;;;3.93;;
75406;SDS011;63978;55.814;37.340;2022-10-16T04:02:23;9.33;;;3.90;;
75406;SDS011;63978;55.814;37.340;2022-10-16T04:04:49;7.72;;;4.13;;
75406;SDS011;63978;55.814;37.340;2022-10-16T04:07:14;8.17;;;4.07;;
75406;SDS011;63978;55.814;37.340;2022-10-16T04:09:40;10.03;;;4.23;;
75406;SDS011;63978;55.814;37.340;2022-10-16T04:12:05;10.32;;;4.20;;
75406;SDS011;63978;55.814;37.340;2022-10-16T04:14:31;7.93;;;3.70;;
75406;SDS011;63978;55.814;37.340;2022-10-16T04:16:56;8.03;;;3.87;;
75406;SDS011;63978;55.814;37.340;2022-10-16T04:19:22;8.25;;;4.00;;
75406;SDS011;63978;55.814;37.340;2022-10-16T04:21:47;8.37;;;3.60;;
75406;SDS011;63978;55.814;37.340;2022-10-16T04:24:13;8.53;;;4.10;;
75406;SDS011;63978;55.814;37.340;2022-10-16T04:26:38;10.07;;;4.20;;
75406;SDS011;63978;55.814;37.340;2022-10-16T04:29:04;8.05;;;3.67;;
75406;SDS011;63978;55.814;37.340;2022-10-16T04:31:29;8.50;;;3.50;;
75406;SDS011;63978;55.814;37.340;2022-10-16T04:33:55;7.63;;;3.67;;
75406;SDS011;63978;55.814;37.340;2022-10-16T04:36:20;7.53;;;3.60;;
75406;SDS011;63978;55.814;37.340;2022-10-16T04:38:46;10.17;;;3.80;;
75406;SDS011;63978;55.814;37.340;2022-10-16T04:41:11;9.57;;;3.87;;
75406;SDS011;63978;55.814;37.340;2022-10-16T04:43:36;7.70;;;3.67;;
75406;SDS011;63978;55.814;37.340;2022-10-16T04:46:02;9.25;;;3.88;;
75406;SDS011;63978;55.814;37.340;2022-10-16T04:48:29;8.17;;;3.70;;
75406;SDS011;63978;55.814;37.340;2022-10-16T04:50:55;7.85;;;3.60;;
75406;SDS011;63978;55.814;37.340;2022-10-16T04:53:21;6.60;;;3.10;;
75406;SDS011;63978;55.814;37.340;2022-10-16T04:55:46;7.25;;;3.70;;
75406;SDS011;63978;55.814;37.340;2022-10-16T04:58:12;9.03;;;3.67;;
75406;SDS011;63978;55.814;37.340;2022-10-16T05:00:37;7.53;;;3.58;;
75406;SDS011;63978;55.814;37.340;2022-10-16T05:03:03;8.17;;;3.90;;
75406;SDS011;63978;55.814;37.340;2022-10-16T05:05:32;7.57;;;3.63;;
75406;SDS011;63978;55.814;37.340;2022-10-16T05:07:58;9.23;;;3.72;;
75406;SDS011;63978;55.814;37.340;2022-10-16T05:10:24;7.13;;;3.17;;
75406;SDS011;63978;55.814;37.340;2022-10-16T05:12:49;6.47;;;3.40;;
75406;SDS011;63978;55.814;37.340;2022-10-16T05:15:16;7.72;;;3.60;;
75406;SDS011;63978;55.814;37.340;2022-10-16T05:17:41;6.73;;;3.47;;
75406;SDS011;63978;55.814;37.340;2022-10-16T05:20:07;7.57;;;3.30;;
75406;SDS011;63978;55.814;37.340;2022-10-16T05:22:33;8.50;;;3.60;;
75406;SDS011;63978;55.814;37.340;2022-10-16T05:24:58;6.47;;;3.40;;
75406;SDS011;63978;55.814;37.340;2022-10-16T05:27:24;7.38;;;3.65;;
75406;SDS011;63978;55.814;37.340;2022-10-16T05:29:50;7.73;;;3.20;;
75406;SDS011;63978;55.814;37.340;2022-10-16T05:32:15;6.05;;;2.92;;
75406;SDS011;63978;55.814;37.340;2022-10-16T05:34:42;7.05;;;3.20;;
75406;SDS011;63978;55.814;37.340;2022-10-16T05:37:09;5.93;;;3.27;;
75406;SDS011;63978;55.814;37.340;2022-10-16T05:39:36;10.05;;;3.55;;
75406;SDS011;63978;55.814;37.340;2022-10-16T05:42:02;7.30;;;3.17;;
75406;SDS011;63978;55.814;37.340;2022-10-16T05:44:27;9.07;;;3.30;;
75406;SDS011;63978;55.814;37.340;2022-10-16T05:46:53;8.45;;;3.38;;
75406;SDS011;63978;55.814;37.340;2022-10-16T05:49:18;6.80;;;3.07;;
75406;SDS011;63978;55.814;37.340;2022-10-16T05:51:44;6.40;;;3.17;;
75406;SDS011;63978;55.814;37.340;2022-10-16T05:54:09;7.37;;;3.20;;
75406;SDS011;63978;55.814;37.340;2022-10-16T05:56:35;7.60;;;3.40;;
75406;SDS011;63978;55.814;37.340;2022-10-16T05:59:00;7.87;;;3.20;;
75406;SDS011;63978;55.814;37.340;2022-10-16T06:01:26;8.07;;;3.13;;
75406;SDS011;63978;55.814;37.340;2022-10-16T06:03:51;7.40;;;3.28;;
75406;SDS011;63978;55.814;37.340;2022-10-16T06:06:21;6.47;;;2.90;;
75406;SDS011;63978;55.814;37.340;2022-10-16T06:08:49;6.05;;;3.25;;
75406;SDS011;63978;55.814;37.340;2022-10-16T06:11:18;6.47;;;3.20;;
75406;SDS011;63978;55.814;37.340;2022-10-16T06:13:49;7.20;;;2.85;;
75406;SDS011;63978;55.814;37.340;2022-10-16T06:16:18;7.28;;;3.00;;
75406;SDS011;63978;55.814;37.340;2022-10-16T06:18:44;7.57;;;2.97;;
75406;SDS011;63978;55.814;37.340;2022-10-16T06:21:20;6.85;;;2.90;;
75406;SDS011;63978;55.814;37.340;2022-10-16T06:23:47;7.75;;;3.25;;
75406;SDS011;63978;55.814;37.340;2022-10-16T06:26:14;6.93;;;3.28;;
75406;SDS011;63978;55.814;37.340;2022-10-16T06:28:41;9.15;;;3.05;;
75406;SDS011;63978;55.814;37.340;2022-10-16T06:31:07;6.47;;;3.10;;
75406;SDS011;63978;55.814;37.340;2022-10-16T06:33:34;7.10;;;3.30;;
75406;SDS011;63978;55.814;37.340;2022-10-16T06:36:04;7.80;;;3.23;;
75406;SDS011;63978;55.814;37.340;2022-10-16T06:38:40;7.57;;;3.08;;
75406;SDS011;63978;55.814;37.340;2022-10-16T06:41:07;6.65;;;3.30;;
75406;SDS011;63978;55.814;37.340;2022-10-16T06:43:34;9.13;;;3.63;;
75406;SDS011;63978;55.814;37.340;2022-10-16T06:46:03;7.43;;;3.30;;
75406;SDS011;63978;55.814;37.340;2022-10-16T06:48:30;8.23;;;3.20;;
75406;SDS011;63978;55.814;37.340;2022-10-16T06:51:00;8.63;;;3.50;;
75406;SDS011;63978;55.814;37.340;2022-10-16T06:53:29;8.68;;;2.90;;
75406;SDS011;63978;55.814;37.340;2022-10-16T06:55:56;8.27;;;3.42;;
75406;SDS011;63978;55.814;37.340;2022-10-16T06:58:22;7.37;;;3.53;;
75406;SDS011;63978;55.814;37.340;2022-10-16T07:00:48;6.80;;;3.15;;
75406;SDS011;63978;55.814;37.340;2022-10-16T07:03:14;8.63;;;3.45;;
75406;SDS011;63978;55.814;37.340;2022-10-16T07:05:40;7.68;;;3.40;;
75406;SDS011;63978;55.814;37.340;2022-10-16T07:08:07;7.70;;;3.67;;
75406;SDS011;63978;55.814;37.340;2022-10-16T07:10:33;7.20;;;3.20;;
75406;SDS011;63978;55.814;37.340;2022-10-16T07:12:59;7.93;;;3.20;;
75406;SDS011;63978;55.814;37.340;2022-10-16T07:15:25;7.43;;;3.47;;
75406;SDS011;63978;55.814;37.340;2022-10-16T07:17:51;9.32;;;3.33;;
75406;SDS011;63978;55.814;37.340;2022-10-16T07:20:17;8.93;;;3.28;;
75406;SDS011;63978;55.814;37.340;2022-10-16T07:22:43;9.97;;;3.40;;
75406;SDS011;63978;55.814;37.340;2022-10-16T07:25:08;7.38;;;3.22;;
75406;SDS011;63978;55.814;37.340;2022-10-16T07:27:34;8.00;;;3.60;;
75406;SDS011;63978;55.814;37.340;2022-10-16T07:29:59;9.07;;;3.50;;
75406;SDS011;63978;55.814;37.340;2022-10-16T07:32:25;6.82;;;3.15;;
75406;SDS011;63978;55.814;37.340;2022-10-16T07:34:52;10.20;;;3.55;;
75406;SDS011;63978;55.814;37.340;2022-10-16T07:37:18;7.88;;;3.22;;
75406;SDS011;63978;55.814;37.340;2022-10-16T07:39:43;8.13;;;3.40;;
75406;SDS011;63978;55.814;37.340;2022-10-16T07:42:09;7.47;;;3.23;;
75406;SDS011;63978;55.814;37.340;2022-10-16T07:44:34;7.63;;;3.60;;
75406;SDS011;63978;55.814;37.340;2022-10-16T07:47:00;8.97;;;3.60;;
75406;SDS011;63978;55.814;37.340;2022-10-16T07:49:25;9.03;;;3.57;;
75406;SDS011;63978;55.814;37.340;2022-10-16T07:51:51;7.17;;;3.10;;
75406;SDS011;63978;55.814;37.340;2022-10-16T07:54:16;7.60;;;3.25;;
75406;SDS011;63978;55.814;37.340;2022-10-16T07:56:42;6.97;;;3.50;;
75406;SDS011;63978;55.814;37.340;2022-10-16T07:59:07;7.07;;;3.20;;
75406;SDS011;63978;55.814;37.340;2022-10-16T08:01:33;8.10;;;3.72;;
75406;SDS011;63978;55.814;37.340;2022-10-16T08:03:58;7.57;;;3.20;;
75406;SDS011;63978;55.814;37.340;2022-10-16T08:06:24;6.10;;;3.17;;
75406;SDS011;63978;55.814;37.340;2022-10-16T08:08:49;8.13;;;3.53;;
75406;SDS011;63978;55.814;37.340;2022-10-16T08:11:15;9.00;;;3.30;;
75406;SDS011;63978;55.814;37.340;2022-10-16T08:13:41;8.67;;;3.47;;
75406;SDS011;63978;55.814;37.340;2022-10-16T08:16:07;6.82;;;2.88;;
75406;SDS011;63978;55.814;37.340;2022-10-16T08:18:40;7.45;;;3.25;;
75406;SDS011;63978;55.814;37.340;2022-10-16T08:21:05;7.10;;;3.22;;
75406;SDS011;63978;55.814;37.340;2022-10-16T08:23:33;6.75;;;2.88;;
75406;SDS011;63978;55.814;37.340;2022-10-16T08:26:02;6.97;;;3.00;;
75406;SDS011;63978;55.814;37.340;2022-10-16T08:28:29;7.72;;;3.28;;
75406;SDS011;63978;55.814;37.340;2022-10-16T08:30:55;8.93;;;3.43;;
75406;SDS011;63978;55.814;37.340;2022-10-16T08:33:22;10.20;;;3.17;;
75406;SDS011;63978;55.814;37.340;2022-10-16T08:35:53;6.88;;;3.20;;
75406;SDS011;63978;55.814;37.340;2022-10-16T08:38:19;6.88;;;3.42;;
75406;SDS011;63978;55.814;37.340;2022-10-16T08:40:45;8.30;;;3.20;;
75406;SDS011;63978;55.814;37.340;2022-10-16T08:48:35;8.50;;;2.90;;
75406;SDS011;63978;55.814;37.340;2022-10-16T08:51:06;9.57;;;3.00;;
75406;SDS011;63978;55.814;37.340;2022-10-16T08:53:37;6.80;;;3.00;;
75406;SDS011;63978;55.814;37.340;2022-10-16T08:56:10;6.38;;;2.88;;
75406;SDS011;63978;55.814;37.340;2022-10-16T08:58:35;7.03;;;3.13;;
75406;SDS011;63978;55.814;37.340;2022-10-16T09:01:02;5.38;;;2.60;;
75406;SDS011;63978;55.814;37.340;2022-10-16T09:12:00;6.30;;;2.90;;
75406;SDS011;63978;55.814;37.340;2022-10-16T09:14:38;6.80;;;2.67;;
75406;SDS011;63978;55.814;37.340;2022-10-16T09:25:30;6.40;;;2.70;;
75406;SDS011;63978;55.814;37.340;2022-10-16T09:27:57;7.43;;;2.75;;
75406;SDS011;63978;55.814;37.340;2022-10-16T09:30:23;6.70;;;3.10;;
75406;SDS011;63978;55.814;37.340;2022-10-16T09:32:54;6.78;;;2.90;;
75406;SDS011;63978;55.814;37.340;2022-10-16T09:35:32;10.18;;;3.00;;
75406;SDS011;63978;55.814;37.340;2022-10-16T09:38:01;6.40;;;2.67;;
75406;SDS011;63978;55.814;37.340;2022-10-16T09:40:34;6.20;;;2.97;;
75406;SDS011;63978;55.814;37.340;2022-10-16T09:46:00;6.13;;;2.77;;
75406;SDS011;63978;55.814;37.340;2022-10-16T09:48:30;6.63;;;2.70;;
75406;SDS011;63978;55.814;37.340;2022-10-16T09:51:02;7.72;;;2.67;;
75406;SDS011;63978;55.814;37.340;2022-10-16T09:56:09;5.25;;;2.40;;
75406;SDS011;63978;55.814;37.340;2022-10-16T09:58:41;7.37;;;2.77;;
75406;SDS011;63978;55.814;37.340;2022-10-16T10:01:12;9.13;;;2.67;;
75406;SDS011;63978;55.814;37.340;2022-10-16T10:03:41;6.75;;;2.50;;
75406;SDS011;63978;55.814;37.340;2022-10-16T10:11:52;6.37;;;2.50;;
75406;SDS011;63978;55.814;37.340;2022-10-16T10:14:28;6.95;;;2.70;;
75406;SDS011;63978;55.814;37.340;2022-10-16T10:17:22;5.90;;;2.55;;
75406;SDS011;63978;55.814;37.340;2022-10-16T10:22:27;6.57;;;2.60;;
75406;SDS011;63978;55.814;37.340;2022-10-16T10:46:56;5.93;;;2.50;;
75406;SDS011;63978;55.814;37.340;2022-10-16T11:00:40;6.60;;;2.58;;
75406;SDS011;63978;55.814;37.340;2022-10-16T11:06:18;6.67;;;2.67;;
75406;SDS011;63978;55.814;37.340;2022-10-16T11:09:01;5.43;;;2.72;;
75406;SDS011;63978;55.814;37.340;2022-10-16T11:11:43;6.18;;;2.45;;
75406;SDS011;63978;55.814;37.340;2022-10-16T11:16:44;6.93;;;2.80;;
75406;SDS011;63978;55.814;37.340;2022-10-16T11:24:59;5.53;;;2.60;;
75406;SDS011;63978;55.814;37.340;2022-10-16T11:27:35;5.85;;;2.25;;
75406;SDS011;63978;55.814;37.340;2022-10-16T11:30:16;5.00;;;2.45;;
75406;SDS011;63978;55.814;37.340;2022-10-16T11:32:54;6.50;;;2.72;;
75406;SDS011;63978;55.814;37.340;2022-10-16T11:37:56;6.00;;;2.70;;
75406;SDS011;63978;55.814;37.340;2022-10-16T11:40:33;5.47;;;2.50;;
75406;SDS011;63978;55.814;37.340;2022-10-16T11:43:10;8.57;;;2.67;;
75406;SDS011;63978;55.814;37.340;2022-10-16T11:45:51;6.22;;;2.67;;
75406;SDS011;63978;55.814;37.340;2022-10-16T11:55:53;5.75;;;2.50;;
75406;SDS011;63978;55.814;37.340;2022-10-16T12:01:17;8.02;;;3.25;;
75406;SDS011;63978;55.814;37.340;2022-10-16T12:06:41;5.40;;;2.45;;
75406;SDS011;63978;55.814;37.340;2022-10-16T12:09:19;5.20;;;2.50;;
75406;SDS011;63978;55.814;37.340;2022-10-16T12:11:47;5.15;;;2.72;;
75406;SDS011;63978;55.814;37.340;2022-10-16T12:17:01;7.13;;;2.43;;
75406;SDS011;63978;55.814;37.340;2022-10-16T12:19:30;5.22;;;2.30;;
75406;SDS011;63978;55.814;37.340;2022-10-16T12:21:56;6.80;;;2.60;;
75406;SDS011;63978;55.814;37.340;2022-10-16T12:24:31;7.40;;;2.42;;
75406;SDS011;63978;55.814;37.340;2022-10-16T12:27:17;6.30;;;2.50;;
75406;SDS011;63978;55.814;37.340;2022-10-16T12:30:02;5.80;;;2.50;;
75406;SDS011;63978;55.814;37.340;2022-10-16T12:32:32;5.40;;;2.50;;
75406;SDS011;63978;55.814;37.340;2022-10-16T12:35:02;8.38;;;2.78;;
75406;SDS011;63978;55.814;37.340;2022-10-16T12:37:32;5.85;;;2.72;;
75406;SDS011;63978;55.814;37.340;2022-10-16T12:40:00;6.60;;;2.60;;
75406;SDS011;63978;55.814;37.340;2022-10-16T12:42:41;7.30;;;2.78;;
75406;SDS011;63978;55.814;37.340;2022-10-16T12:47:56;5.77;;;2.60;;
75406;SDS011;63978;55.814;37.340;2022-10-16T12:50:24;5.60;;;2.80;;
75406;SDS011;63978;55.814;37.340;2022-10-16T12:52:49;8.00;;;2.97;;
75406;SDS011;63978;55.814;37.340;2022-10-16T12:55:16;6.43;;;2.53;;
75406;SDS011;63978;55.814;37.340;2022-10-16T13:03:49;6.00;;;2.67;;
75406;SDS011;63978;55.814;37.340;2022-10-16T13:06:35;7.28;;;2.90;;
75406;SDS011;63978;55.814;37.340;2022-10-16T13:12:12;8.57;;;2.85;;
75406;SDS011;63978;55.814;37.340;2022-10-16T13:23:45;6.77;;;2.67;;
75406;SDS011;63978;55.814;37.340;2022-10-16T13:29:21;6.03;;;2.65;;
75406;SDS011;63978;55.814;37.340;2022-10-16T13:31:48;6.63;;;2.90;;
75406;SDS011;63978;55.814;37.340;2022-10-16T13:34:15;7.43;;;2.80;;
75406;SDS011;63978;55.814;37.340;2022-10-16T13:36:47;6.80;;;2.83;;
75406;SDS011;63978;55.814;37.340;2022-10-16T13:42:03;6.53;;;2.75;;
75406;SDS011;63978;55.814;37.340;2022-10-16T13:44:36;7.05;;;2.70;;
75406;SDS011;63978;55.814;37.340;2022-10-16T13:47:13;6.07;;;2.50;;
75406;SDS011;63978;55.814;37.340;2022-10-16T13:49:44;5.70;;;2.57;;
75406;SDS011;63978;55.814;37.340;2022-10-16T13:52:18;6.28;;;2.50;;
75406;SDS011;63978;55.814;37.340;2022-10-16T13:54:44;6.55;;;2.70;;
75406;SDS011;63978;55.814;37.340;2022-10-16T13:57:16;6.40;;;2.70;;
75406;SDS011;63978;55.814;37.340;2022-10-16T13:59:43;6.10;;;2.60;;
75406;SDS011;63978;55.814;37.340;2022-10-16T14:02:14;6.00;;;2.80;;
75406;SDS011;63978;55.814;37.340;2022-10-16T14:04:46;7.18;;;3.10;;
75406;SDS011;63978;55.814;37.340;2022-10-16T14:07:13;8.13;;;2.90;;
75406;SDS011;63978;55.814;37.340;2022-10-16T14:09:42;7.15;;;2.72;;
75406;SDS011;63978;55.814;37.340;2022-10-16T14:12:14;6.05;;;2.47;;
75406;SDS011;63978;55.814;37.340;2022-10-16T14:14:42;6.40;;;2.60;;
75406;SDS011;63978;55.814;37.340;2022-10-16T14:17:13;6.15;;;2.60;;
75406;SDS011;63978;55.814;37.340;2022-10-16T14:20:00;7.20;;;2.80;;
75406;SDS011;63978;55.814;37.340;2022-10-16T14:22:36;7.22;;;2.60;;
75406;SDS011;63978;55.814;37.340;2022-10-16T14:27:58;6.88;;;2.78;;
75406;SDS011;63978;55.814;37.340;2022-10-16T14:30:29;8.02;;;2.88;;
75406;SDS011;63978;55.814;37.340;2022-10-16T14:32:57;8.33;;;3.63;;
75406;SDS011;63978;55.814;37.340;2022-10-16T14:37:58;8.13;;;3.00;;
75406;SDS011;63978;55.814;37.340;2022-10-16T14:40:29;6.57;;;3.28;;
75406;SDS011;63978;55.814;37.340;2022-10-16T14:42:57;7.72;;;2.80;;
75406;SDS011;63978;55.814;37.340;2022-10-16T14:45:29;7.17;;;2.93;;
75406;SDS011;63978;55.814;37.340;2022-10-16T14:47:58;7.18;;;2.75;;
75406;SDS011;63978;55.814;37.340;2022-10-16T14:50:27;7.95;;;3.45;;
75406;SDS011;63978;55.814;37.340;2022-10-16T14:52:53;8.45;;;3.10;;
75406;SDS011;63978;55.814;37.340;2022-10-16T14:55:19;6.95;;;3.05;;
75406;SDS011;63978;55.814;37.340;2022-10-16T14:57:45;7.57;;;3.10;;
75406;SDS011;63978;55.814;37.340;2022-10-16T15:00:22;8.02;;;3.25;;
75406;SDS011;63978;55.814;37.340;2022-10-16T15:02:49;8.80;;;3.30;;
75406;SDS011;63978;55.814;37.340;2022-10-16T15:05:20;9.02;;;3.50;;
75406;SDS011;63978;55.814;37.340;2022-10-16T15:07:47;9.13;;;3.60;;
75406;SDS011;63978;55.814;37.340;2022-10-16T15:10:14;6.57;;;3.10;;
75406;SDS011;63978;55.814;37.340;2022-10-16T15:12:41;7.53;;;3.22;;
75406;SDS011;63978;55.814;37.340;2022-10-16T15:17:51;10.15;;;3.30;;
75406;SDS011;63978;55.814;37.340;2022-10-16T15:20:20;8.43;;;3.03;;
75406;SDS011;63978;55.814;37.340;2022-10-16T15:22:46;7.33;;;3.27;;
75406;SDS011;63978;55.814;37.340;2022-10-16T15:28:12;9.13;;;3.25;;
75406;SDS011;63978;55.814;37.340;2022-10-16T15:30:39;8.68;;;3.28;;
75406;SDS011;63978;55.814;37.340;2022-10-16T15:33:04;7.30;;;3.20;;
75406;SDS011;63978;55.814;37.340;2022-10-16T15:35:35;7.45;;;3.25;;
75406;SDS011;63978;55.814;37.340;2022-10-16T15:38:01;8.40;;;3.00;;
75406;SDS011;63978;55.814;37.340;2022-10-16T15:40:26;8.63;;;3.20;;
75406;SDS011;63978;55.814;37.340;2022-10-16T15:42:52;8.63;;;3.80;;
75406;SDS011;63978;55.814;37.340;2022-10-16T15:45:17;8.87;;;3.90;;
75406;SDS011;63978;55.814;37.340;2022-10-16T15:47:44;8.60;;;3.30;;
75406;SDS011;63978;55.814;37.340;2022-10-16T15:50:10;9.40;;;3.27;;
75406;SDS011;63978;55.814;37.340;2022-10-16T15:52:37;6.63;;;3.22;;
75406;SDS011;63978;55.814;37.340;2022-10-16T15:55:05;7.28;;;3.08;;
75406;SDS011;63978;55.814;37.340;2022-10-16T15:57:34;7.28;;;3.60;;
75406;SDS011;63978;55.814;37.340;2022-10-16T16:00:03;7.83;;;3.30;;
75406;SDS011;63978;55.814;37.340;2022-10-16T16:02:30;9.32;;;3.33;;
75406;SDS011;63978;55.814;37.340;2022-10-16T16:04:56;7.80;;;3.30;;
